Time;durP1;ratioP1;P1;durP2;ratioP2;P2;SDS_P1;SDS_P2;PMS_P1;PMS_P2;Temp;Humidity;BMP_temperature;BMP_pressure;BME280_temperature;BME280_humidity;BME280_pressure;Samples;Min_cycle;Max_cycle;Signal;HPM_P1;HPM_P2
2022/02/07 00:00:21;;;;;;;;;2.00;2.00;;;;;10.32;62.38;100866.72;5077472;28;45160;-61
2022/02/07 00:03:04;;;;;;;;;4.25;3.00;;;;;10.29;62.71;100873.06;5076926;28;47080;-60
2022/02/07 00:05:31;;;;;;;;;3.00;3.00;;;;;10.26;62.71;100883.81;5077173;28;45305;-60
2022/02/07 00:07:57;;;;;;;;;3.25;1.25;;;;;10.23;62.28;100886.69;5076159;28;45417;-61
2022/02/07 00:10:23;;;;;;;;;3.75;1.50;;;;;10.20;62.30;100895.63;5076663;28;45694;-60
2022/02/07 00:12:48;;;;;;;;;3.00;1.50;;;;;10.18;61.97;100908.06;5076804;28;46104;-60
2022/02/07 00:15:14;;;;;;;;;3.50;1.25;;;;;10.15;61.97;100900.44;5076721;28;52881;-60
2022/02/07 00:17:40;;;;;;;;;5.00;2.00;;;;;10.16;62.33;100917.03;5076370;28;45255;-61
2022/02/07 00:20:10;;;;;;;;;2.00;2.00;;;;;10.16;62.17;100917.84;5077047;28;45475;-61
2022/02/07 00:22:36;;;;;;;;;2.00;1.25;;;;;10.15;61.83;100924.06;5076039;28;46225;-61
2022/02/07 00:25:02;;;;;;;;;3.25;2.00;;;;;10.13;61.79;100939.09;5075870;28;67545;-61
2022/02/07 00:27:28;;;;;;;;;1.25;1.00;;;;;10.13;61.32;100935.66;5076701;28;45492;-62
2022/02/07 00:29:53;;;;;;;;;1.00;1.00;;;;;10.09;61.72;100948.19;5075425;27;66683;-61
2022/02/07 00:32:18;;;;;;;;;5.00;1.00;;;;;10.07;61.71;100936.97;5075364;28;73205;-61
2022/02/07 00:34:44;;;;;;;;;2.50;1.00;;;;;10.04;61.37;100943.31;5075602;28;68985;-61
2022/02/07 00:37:09;;;;;;;;;3.00;1.75;;;;;10.02;61.22;100960.97;5076662;28;45181;-60
2022/02/07 00:39:46;;;;;;;;;1.00;1.00;;;;;9.99;61.06;100960.41;5076609;28;45292;-60
2022/02/07 00:42:21;;;;;;;;;2.00;1.00;;;;;9.93;61.07;100972.19;5076007;28;45296;-60
2022/02/07 00:44:48;;;;;;;;;1.00;1.00;;;;;9.91;60.69;100968.84;5058164;28;45965;-61
2022/02/07 00:47:15;;;;;;;;;1.00;1.00;;;;;9.87;60.89;100976.16;5076501;28;45350;-60
2022/02/07 00:49:43;;;;;;;;;3.00;1.00;;;;;9.82;60.75;100980.91;5058432;28;45340;-61
2022/02/07 00:52:09;;;;;;;;;2.00;1.00;;;;;9.78;60.27;101001.34;5076295;28;46122;-61
2022/02/07 00:54:35;;;;;;;;;2.25;1.00;;;;;9.75;60.13;101012.06;5075495;28;66604;-61
2022/02/07 00:57:00;;;;;;;;;2.25;1.75;;;;;9.69;59.71;101003.81;5058166;28;45353;-61
2022/02/07 00:59:25;;;;;;;;;4.50;1.25;;;;;9.64;59.37;101019.94;5075384;28;65758;-61
2022/02/07 01:01:51;;;;;;;;;1.25;1.25;;;;;9.60;59.43;101037.69;5075282;28;69406;-61
2022/02/07 01:04:16;;;;;;;;;4.00;2.00;;;;;9.55;59.15;101046.88;5075156;28;72226;-61
2022/02/07 01:06:41;;;;;;;;;3.50;1.00;;;;;9.49;58.77;101035.88;5075624;28;58041;-61
2022/02/07 01:09:20;;;;;;;;;3.50;2.50;;;;;9.46;58.70;101030.03;5075491;28;45316;-61
2022/02/07 01:12:00;;;;;;;;;1.00;1.00;;;;;9.42;58.69;101041.72;5076020;28;46200;-61
2022/02/07 01:18:05;;;;;;;;;1.00;1.00;;;;;9.32;57.02;101079.13;5076234;28;45268;-61
2022/02/07 01:46:05;;;;;;;;;0.00;0.00;;;;;9.20;56.52;101087.91;5075967;28;45337;-61
2022/02/07 01:53:02;;;;;;;;;4.75;1.00;;;;;8.81;55.98;101184.19;5079184;28;45343;-60
2022/02/07 01:57:53;;;;;;;;;0.00;0.00;;;;;8.74;55.30;101195.09;5078998;28;45315;-61
2022/02/07 02:00:18;;;;;;;;;2.00;0.75;;;;;8.69;55.04;101202.44;5078994;28;45397;-61
2022/02/07 02:02:44;;;;;;;;;3.00;0.00;;;;;8.66;54.65;101213.13;5060859;28;45334;-61
2022/02/07 02:05:10;;;;;;;;;1.00;1.00;;;;;8.63;54.62;101229.06;5060576;28;45319;-61
2022/02/07 02:07:35;;;;;;;;;2.00;1.00;;;;;8.61;54.48;101241.44;5078871;28;45299;-61
2022/02/07 02:10:01;;;;;;;;;2.50;0.00;;;;;8.59;54.32;101245.94;5078035;28;64314;-60
2022/02/07 02:12:30;;;;;;;;;0.00;0.00;;;;;8.56;54.63;101252.25;5078718;28;45525;-61
2022/02/07 02:20:36;;;;;;;;;3.00;0.00;;;;;8.49;54.07;101256.22;5078558;28;45255;-60
2022/02/07 02:23:04;;;;;;;;;1.00;1.00;;;;;8.50;54.23;101275.38;5078513;28;45277;-60
2022/02/07 02:46:48;;;;;;;;;1.00;1.00;;;;;8.31;54.21;101329.81;5078153;28;45442;-61
2022/02/07 02:49:13;;;;;;;;;0.25;0.25;;;;;8.29;54.32;101336.09;5077168;28;69658;-61
2022/02/07 02:51:38;;;;;;;;;1.50;0.00;;;;;8.26;54.35;101347.59;5060085;28;45411;-61
2022/02/07 02:54:05;;;;;;;;;0.50;0.00;;;;;8.25;54.24;101356.38;5077154;28;68703;-60
2022/02/07 02:56:32;;;;;;;;;1.25;1.00;;;;;8.23;54.29;101353.03;5059437;28;45289;-61
2022/02/07 02:58:57;;;;;;;;;2.00;0.75;;;;;8.20;54.44;101348.03;5077913;28;45248;-61
2022/02/07 03:01:22;;;;;;;;;0.00;0.00;;;;;8.17;54.23;101349.03;5078033;28;45181;-60
2022/02/07 03:03:48;;;;;;;;;0.00;0.00;;;;;8.13;54.40;101363.28;5077093;28;64456;-61
2022/02/07 03:06:14;;;;;;;;;2.00;0.25;;;;;8.10;54.20;101353.00;5076677;28;74250;-60
2022/02/07 03:08:39;;;;;;;;;2.25;0.50;;;;;8.08;54.25;101348.81;5077922;28;45871;-61
2022/02/07 03:11:12;;;;;;;;;5.00;1.00;;;;;8.07;54.22;101355.00;5058671;28;56837;-60
2022/02/07 03:13:48;;;;;;;;;3.00;0.00;;;;;8.03;54.15;101351.72;5077981;28;45334;-60
2022/02/07 03:19:02;;;;;;;;;2.00;0.00;;;;;7.98;53.99;101372.09;5077717;28;45324;-61
2022/02/07 03:21:27;;;;;;;;;0.00;0.00;;;;;7.95;54.30;101375.78;5077690;28;45335;-61
2022/02/07 03:23:53;;;;;;;;;1.00;1.00;;;;;7.93;54.19;101371.59;5059533;28;45334;-60
2022/02/07 03:26:19;;;;;;;;;3.50;0.25;;;;;7.91;54.39;101379.50;5077317;28;47625;-60
2022/02/07 03:28:48;;;;;;;;;2.75;1.00;;;;;7.91;54.52;101391.78;5077457;28;45440;-61
2022/02/07 03:31:17;;;;;;;;;3.25;1.00;;;;;7.90;54.34;101395.31;5077500;28;45240;-60
2022/02/07 03:33:42;;;;;;;;;2.00;0.50;;;;;7.88;54.18;101411.13;5077580;28;45449;-61
2022/02/07 03:36:10;;;;;;;;;2.00;0.00;;;;;7.86;54.26;101413.84;5077434;28;45296;-60
2022/02/07 03:38:35;;;;;;;;;1.50;0.00;;;;;7.84;54.18;101423.56;5059249;28;45327;-60
2022/02/07 03:41:01;;;;;;;;;1.00;1.00;;;;;7.82;54.64;101429.81;5077417;28;45385;-60
2022/02/07 03:43:27;;;;;;;;;2.00;2.00;;;;;7.81;54.43;101423.75;5077377;28;45459;-60
2022/02/07 03:45:52;;;;;;;;;3.00;0.75;;;;;7.81;54.38;101439.44;5076230;28;73500;-60
2022/02/07 03:48:17;;;;;;;;;0.00;0.00;;;;;7.80;54.43;101435.16;5076287;28;68552;-60
2022/02/07 03:50:43;;;;;;;;;1.25;1.25;;;;;7.78;54.45;101446.63;5076323;28;69319;-61
2022/02/07 03:53:08;;;;;;;;;2.75;0.00;;;;;7.76;54.70;101453.72;5074879;28;61667;-60
2022/02/07 03:55:33;;;;;;;;;1.50;1.00;;;;;7.75;54.74;101457.28;5076076;28;75585;-61
2022/02/07 03:57:59;;;;;;;;;4.25;1.00;;;;;7.73;54.84;101465.25;5076090;28;71258;-60
2022/02/07 04:00:25;;;;;;;;;2.00;1.50;;;;;7.71;54.91;101467.94;5077161;28;45359;-60
2022/02/07 04:02:52;;;;;;;;;2.25;0.75;;;;;7.67;54.94;101461.25;5075931;28;45607;-60
2022/02/07 04:05:39;;;;;;;;;1.00;1.00;;;;;7.65;55.02;101468.34;5076784;28;46986;-60
2022/02/07 04:08:04;;;;;;;;;2.50;2.00;;;;;7.63;55.26;101477.19;5076653;28;45815;-60
2022/02/07 04:10:36;;;;;;;;;1.00;1.00;;;;;7.60;55.28;101480.00;5075958;28;45235;-60
2022/02/07 04:13:04;;;;;;;;;1.75;1.00;;;;;7.59;55.24;101487.03;5077058;28;45376;-60
2022/02/07 04:15:30;;;;;;;;;2.25;1.00;;;;;7.56;55.35;101495.88;5058467;28;46160;-60
2022/02/07 04:18:00;;;;;;;;;2.00;1.00;;;;;7.54;55.36;101500.34;5076845;28;45716;-61
2022/02/07 04:20:26;;;;;;;;;5.50;1.00;;;;;7.53;55.55;101505.69;5076412;28;45415;-61
2022/02/07 04:22:51;;;;;;;;;2.25;0.00;;;;;7.50;55.58;101511.09;5076205;28;52960;-60
2022/02/07 04:25:16;;;;;;;;;3.00;0.25;;;;;7.49;55.74;101514.66;5076641;28;46046;-60
2022/02/07 04:27:42;;;;;;;;;0.75;0.50;;;;;7.47;55.89;101517.34;5075787;28;45328;-60
2022/02/07 04:30:07;;;;;;;;;2.00;1.00;;;;;7.45;56.02;101529.66;5075358;27;69373;-60
2022/02/07 04:32:33;;;;;;;;;1.25;1.00;;;;;7.44;56.17;101535.81;5076659;28;45319;-60
2022/02/07 04:34:58;;;;;;;;;3.00;1.00;;;;;7.42;56.17;101532.47;5076292;28;46338;-61
2022/02/07 04:37:24;;;;;;;;;3.50;1.25;;;;;7.41;56.39;101549.13;5075602;28;65473;-59
2022/02/07 04:39:51;;;;;;;;;1.00;1.00;;;;;7.39;56.61;101551.81;5058404;28;45317;-61
2022/02/07 04:42:18;;;;;;;;;4.00;1.50;;;;;7.39;56.70;101559.66;5076420;28;45367;-61
2022/02/07 04:44:56;;;;;;;;;1.00;1.00;;;;;7.37;56.75;101565.91;5076230;28;45458;-60
2022/02/07 04:52:57;;;;;;;;;2.00;1.00;;;;;7.28;57.21;101569.88;5076334;28;45422;-61
2022/02/07 04:55:34;;;;;;;;;4.50;3.00;;;;;7.26;57.20;101569.13;5057827;28;45623;-61
2022/02/07 04:58:06;;;;;;;;;3.00;2.00;;;;;7.24;57.36;101577.06;5076147;28;45927;-60
2022/02/07 05:03:09;;;;;;;;;5.25;2.00;;;;;7.13;57.46;101567.25;5076817;28;45342;-61
2022/02/07 05:13:48;;;;;;;;;12.00;3.00;;;;;7.10;57.87;101595.31;5079872;28;45312;-60
2022/02/07 05:16:20;;;;;;;;;8.50;5.00;;;;;7.10;57.80;101603.16;5079618;28;46395;-61
2022/02/07 05:18:48;;;;;;;;;5.25;2.75;;;;;7.07;58.11;101608.56;5079615;28;45448;-60
2022/02/07 05:21:14;;;;;;;;;4.75;2.50;;;;;7.03;58.21;101618.34;5062054;28;45347;-60
2022/02/07 05:23:39;;;;;;;;;9.00;4.75;;;;;7.02;58.26;101631.47;5078408;28;70359;-60
2022/02/07 05:26:05;;;;;;;;;4.75;3.50;;;;;7.01;58.26;101629.78;5078318;28;70218;-60
2022/02/07 05:28:30;;;;;;;;;7.00;3.25;;;;;6.99;58.29;101632.50;5078573;28;67204;-60
2022/02/07 05:30:55;;;;;;;;;6.00;3.00;;;;;6.98;58.28;101636.06;5078243;27;68305;-61
2022/02/07 05:33:21;;;;;;;;;6.50;3.75;;;;;6.96;58.45;101637.91;5079250;28;45404;-60
2022/02/07 05:35:46;;;;;;;;;10.00;5.50;;;;;6.94;58.53;101639.75;5078504;28;64975;-61
2022/02/07 05:38:11;;;;;;;;;5.00;4.00;;;;;6.92;58.56;101645.06;5078316;28;68091;-60
2022/02/07 05:40:46;;;;;;;;;3.25;2.50;;;;;6.90;58.24;101656.53;5079434;28;45308;-61
2022/02/07 05:43:15;;;;;;;;;10.25;5.00;;;;;6.89;58.74;101667.91;5079315;28;45437;-60
2022/02/07 05:45:40;;;;;;;;;3.75;3.75;;;;;6.89;58.76;101665.28;5079060;28;45328;-61
2022/02/07 05:48:05;;;;;;;;;9.25;5.00;;;;;6.85;58.78;101674.22;5077978;28;73293;-60
2022/02/07 05:50:31;;;;;;;;;9.00;5.00;;;;;6.81;58.68;101677.00;5079171;28;45326;-61
2022/02/07 05:52:58;;;;;;;;;11.50;6.25;;;;;6.80;58.71;101680.53;5078039;28;70598;-60
2022/02/07 05:55:23;;;;;;;;;7.50;6.50;;;;;6.77;58.79;101693.75;5078856;28;45490;-60
2022/02/07 05:57:49;;;;;;;;;11.50;5.00;;;;;6.73;59.06;101694.84;5078491;28;51561;-61
2022/02/07 06:00:14;;;;;;;;;7.50;4.50;;;;;6.71;58.99;101706.31;5078992;28;45292;-61
2022/02/07 06:02:40;;;;;;;;;12.00;6.50;;;;;6.70;59.05;101715.09;5078798;28;45506;-60
2022/02/07 06:05:05;;;;;;;;;7.50;6.00;;;;;6.68;59.19;101709.91;5078078;28;62576;-60
2022/02/07 06:07:31;;;;;;;;;6.00;5.75;;;;;6.66;59.33;101715.25;5077416;28;45303;-61
2022/02/07 06:09:56;;;;;;;;;5.50;4.00;;;;;6.65;59.23;101724.00;5077819;28;70232;-60
2022/02/07 06:12:21;;;;;;;;;9.75;4.00;;;;;6.62;59.37;101707.66;5078768;28;45499;-61
2022/02/07 06:14:47;;;;;;;;;4.75;4.00;;;;;6.61;59.33;101712.03;5076922;28;68379;-61
2022/02/07 06:17:12;;;;;;;;;6.25;5.75;;;;;6.58;59.47;101717.41;5060412;28;45339;-61
2022/02/07 06:19:38;;;;;;;;;9.75;7.75;;;;;6.55;59.63;101720.19;5078524;28;45267;-61
2022/02/07 06:22:04;;;;;;;;;10.00;5.00;;;;;6.54;59.72;101731.56;5078706;28;45618;-60
2022/02/07 06:24:29;;;;;;;;;8.50;5.75;;;;;6.52;59.72;101734.25;5078499;28;45951;-61
2022/02/07 06:26:54;;;;;;;;;7.75;5.00;;;;;6.51;59.76;101736.94;5077269;28;73321;-61
2022/02/07 06:29:20;;;;;;;;;14.75;10.50;;;;;6.48;59.83;101743.16;5077733;27;45295;-61
2022/02/07 06:31:45;;;;;;;;;10.75;9.75;;;;;6.47;59.78;101748.47;5078308;28;45288;-60
2022/02/07 06:34:10;;;;;;;;;16.25;11.00;;;;;6.47;59.97;101751.06;5078006;28;52507;-61
2022/02/07 06:36:36;;;;;;;;;15.50;12.00;;;;;6.46;59.81;101749.38;5077632;28;55554;-60
2022/02/07 06:39:01;;;;;;;;;13.00;10.00;;;;;6.45;59.94;101747.69;5059651;28;57299;-61
2022/02/07 06:41:27;;;;;;;;;23.25;17.00;;;;;6.43;60.09;101757.38;5078128;28;45513;-61
2022/02/07 06:43:52;;;;;;;;;14.50;10.00;;;;;6.38;60.06;101758.44;5077254;28;61127;-61
2022/02/07 06:46:18;;;;;;;;;20.25;16.50;;;;;6.36;60.28;101765.50;5077016;28;73285;-61
2022/02/07 06:48:43;;;;;;;;;11.00;10.25;;;;;6.35;60.24;101766.47;5076966;28;69250;-61
2022/02/07 06:51:08;;;;;;;;;13.25;11.00;;;;;6.32;60.32;101769.22;5077963;28;45141;-60
2022/02/07 06:53:34;;;;;;;;;8.50;5.00;;;;;6.31;60.43;101779.72;5077297;28;66649;-60
2022/02/07 06:55:59;;;;;;;;;8.00;6.25;;;;;6.28;60.62;101783.34;5059731;28;46033;-60
2022/02/07 06:58:25;;;;;;;;;20.00;11.75;;;;;6.24;60.70;101776.59;5077165;28;63247;-61
2022/02/07 07:00:50;;;;;;;;;5.25;4.00;;;;;6.20;60.92;101786.31;5059710;28;45482;-61
2022/02/07 07:03:19;;;;;;;;;7.25;4.00;;;;;6.18;60.67;101792.56;5077669;28;45373;-60
2022/02/07 07:05:45;;;;;;;;;4.50;2.00;;;;;6.14;61.02;101799.69;5077790;28;45207;-61
2022/02/07 07:08:10;;;;;;;;;11.00;8.50;;;;;6.08;61.10;101803.44;5077688;28;45180;-60
2022/02/07 07:10:35;;;;;;;;;12.75;10.00;;;;;6.03;61.06;101796.78;5077554;28;45240;-61
2022/02/07 07:13:10;;;;;;;;;14.75;13.50;;;;;5.97;60.97;101802.25;5077147;28;46151;-60
2022/02/07 07:18:36;;;;;;;;;17.75;13.00;;;;;5.85;61.24;101808.88;5034969;28;45391;-61
2022/02/07 07:21:01;;;;;;;;;22.50;17.50;;;;;5.79;61.48;101812.66;5067474;28;61911;-60
2022/02/07 07:23:27;;;;;;;;;19.25;16.50;;;;;5.73;61.76;101813.81;5058099;28;74495;-60
2022/02/07 07:25:52;;;;;;;;;17.50;14.00;;;;;5.70;61.96;101831.34;5077319;28;45256;-61
2022/02/07 07:28:19;;;;;;;;;21.25;17.25;;;;;5.64;61.81;101838.53;5076821;28;60313;-60
2022/02/07 07:30:52;;;;;;;;;23.75;16.25;;;;;5.62;61.95;101850.78;5076895;27;45197;-60
2022/02/07 07:33:22;;;;;;;;;22.25;17.00;;;;;5.60;61.99;101857.00;5077385;28;46024;-60
2022/02/07 07:35:47;;;;;;;;;16.00;16.00;;;;;5.56;62.00;101864.13;5077467;28;45877;-59
2022/02/07 07:38:12;;;;;;;;;20.75;17.25;;;;;5.54;62.42;101867.72;5076757;28;62276;-60
2022/02/07 07:40:38;;;;;;;;;20.00;14.75;;;;;5.49;62.16;101873.16;5076867;28;57355;-59
2022/02/07 07:43:06;;;;;;;;;19.50;15.25;;;;;5.46;62.42;101879.34;5076653;28;54999;-59
2022/02/07 07:45:35;;;;;;;;;15.00;13.75;;;;;5.43;62.33;101892.50;5077290;28;45429;-58
2022/02/07 07:48:05;;;;;;;;;23.50;17.25;;;;;5.41;62.88;101891.72;5077381;28;45345;-61
2022/02/07 07:50:39;;;;;;;;;21.50;18.00;;;;;5.39;63.00;101897.94;5077128;28;45243;-59
2022/02/07 07:54:10;;;;;;;;;23.50;17.00;;;;;5.39;63.09;101898.78;5076425;28;46336;-59
2022/02/07 08:01:46;;;;;;;;;29.00;22.00;;;;;5.43;63.51;101933.38;5077012;28;45225;-61
2022/02/07 08:04:14;;;;;;;;;22.25;15.00;;;;;5.43;64.08;101936.81;5076714;28;45290;-61
2022/02/07 08:07:07;;;;;;;;;21.00;14.75;;;;;5.46;63.68;101936.69;5076991;28;46019;-59
2022/02/07 08:09:47;;;;;;;;;23.25;17.00;;;;;5.52;63.72;101946.00;5076191;28;45344;-59
2022/02/07 08:12:14;;;;;;;;;53.25;42.75;;;;;5.58;64.09;101944.88;5076711;28;45345;-60
2022/02/07 08:14:39;;;;;;;;;32.50;24.00;;;;;5.63;63.92;101954.19;5076376;28;45987;-61
2022/02/07 08:17:05;;;;;;;;;23.50;17.75;;;;;5.69;63.85;101952.22;5076712;28;45516;-61
2022/02/07 08:19:32;;;;;;;;;16.25;14.25;;;;;5.74;63.96;101960.69;5076159;28;45263;-61
2022/02/07 08:21:58;;;;;;;;;14.50;12.50;;;;;5.81;63.91;101966.47;5076908;28;45328;-61
2022/02/07 08:24:23;;;;;;;;;16.50;10.00;;;;;5.87;63.86;101972.25;5075665;28;69987;-61
2022/02/07 08:26:49;;;;;;;;;8.00;7.00;;;;;5.94;64.03;101978.88;5075704;28;70483;-61
2022/02/07 08:29:14;;;;;;;;;9.00;7.00;;;;;6.01;64.00;101979.47;5076616;27;45295;-61
2022/02/07 08:31:40;;;;;;;;;7.75;5.00;;;;;6.09;63.49;101986.97;5075719;28;68471;-61
2022/02/07 08:34:05;;;;;;;;;10.00;5.00;;;;;6.15;63.41;101984.03;5076444;28;46133;-61
2022/02/07 08:36:31;;;;;;;;;8.00;5.00;;;;;6.22;63.18;101993.28;5076451;28;45433;-61
2022/02/07 08:38:58;;;;;;;;;15.25;5.50;;;;;6.30;63.14;102000.78;5075008;28;66093;-61
2022/02/07 08:41:23;;;;;;;;;9.25;7.75;;;;;6.36;62.89;102010.91;5076429;28;45264;-61
2022/02/07 08:43:51;;;;;;;;;10.75;7.75;;;;;6.44;62.65;102001.88;5075940;28;46090;-61
2022/02/07 08:46:17;;;;;;;;;8.50;5.00;;;;;6.48;62.63;101996.44;5076232;28;45228;-60
2022/02/07 08:48:42;;;;;;;;;10.00;6.75;;;;;6.58;62.57;101998.63;5075600;28;45367;-61
2022/02/07 08:51:07;;;;;;;;;10.00;7.25;;;;;6.67;62.42;102003.38;5057337;28;58296;-61
2022/02/07 08:53:38;;;;;;;;;10.25;7.25;;;;;6.74;62.18;102007.38;5076011;28;45384;-61
2022/02/07 08:56:05;;;;;;;;;8.25;5.00;;;;;6.82;61.95;102007.88;5057856;28;45339;-59
2022/02/07 08:58:33;;;;;;;;;12.50;8.50;;;;;6.93;61.78;102009.94;5076007;28;45361;-59
2022/02/07 09:11:15;;;;;;;;;12.25;8.50;;;;;7.70;60.49;102051.44;5076009;28;45454;-58
2022/02/07 09:13:43;;;;;;;;;10.50;8.00;;;;;7.94;60.24;102053.72;5075893;28;45313;-58
2022/02/07 09:18:34;;;;;;;;;10.50;9.25;;;;;8.47;59.34;102083.16;5075824;28;45316;-61
2022/02/07 09:21:01;;;;;;;;;11.50;9.75;;;;;8.73;58.85;102068.63;5074745;28;45339;-61
2022/02/07 09:23:27;;;;;;;;;10.75;7.25;;;;;8.98;58.31;102067.25;5075649;28;45355;-61
2022/02/07 09:25:53;;;;;;;;;11.00;7.50;;;;;9.25;57.68;102086.72;5075687;28;45876;-61
2022/02/07 09:28:19;;;;;;;;;11.50;7.00;;;;;9.49;57.00;102087.06;5075723;28;45406;-62
2022/02/07 09:30:45;;;;;;;;;11.75;6.25;;;;;9.74;56.50;102096.09;5075815;27;45383;-61
2022/02/07 09:33:11;;;;;;;;;2.00;0.00;;;;;9.97;55.86;102117.50;5075577;28;50978;-62
2022/02/07 09:35:36;;;;;;;;;6.75;6.00;;;;;10.16;55.44;102125.94;5075905;28;45313;-61
2022/02/07 09:38:02;;;;;;;;;11.75;5.25;;;;;10.37;55.08;102131.63;5075849;28;45491;-61
2022/02/07 09:40:27;;;;;;;;;6.75;6.00;;;;;10.58;54.49;102128.66;5075845;28;45318;-60
2022/02/07 09:42:57;;;;;;;;;8.00;6.00;;;;;10.80;53.83;102135.19;5075549;28;45991;-60
2022/02/07 09:45:32;;;;;;;;;13.25;5.00;;;;;11.01;53.44;102151.38;5075710;28;45386;-59
2022/02/07 09:47:58;;;;;;;;;13.50;7.00;;;;;11.22;53.09;102148.25;5058852;28;45526;-59
2022/02/07 09:50:24;;;;;;;;;6.75;5.00;;;;;11.43;52.62;102167.91;5076758;28;45382;-61
2022/02/07 09:52:49;;;;;;;;;9.75;5.00;;;;;11.64;52.22;102163.94;5078804;28;49207;-62
2022/02/07 09:55:14;;;;;;;;;6.50;5.00;;;;;11.82;51.30;102167.13;5078271;28;64466;-58
2022/02/07 09:57:40;;;;;;;;;12.25;9.25;;;;;12.00;51.17;102165.91;5078414;28;60423;-60
2022/02/07 10:00:08;;;;;;;;;8.25;5.00;;;;;12.17;50.84;102167.38;5079136;28;45340;-61
2022/02/07 10:02:45;;;;;;;;;6.50;5.25;;;;;12.34;50.31;102175.91;5078707;28;46026;-61
2022/02/07 10:05:20;;;;;;;;;9.00;7.00;;;;;12.53;50.06;102180.72;5078809;28;46001;-61
2022/02/07 10:08:09;;;;;;;;;10.25;8.00;;;;;12.73;49.36;102187.22;5078025;28;45272;-60
2022/02/07 10:10:42;;;;;;;;;9.00;6.75;;;;;12.91;48.52;102200.88;5079035;28;45327;-60
2022/02/07 10:13:39;;;;;;;;;7.25;5.75;;;;;13.05;48.58;102199.88;5078729;28;47166;-61
2022/02/07 10:19:08;;;;;;;;;5.75;3.00;;;;;13.36;47.32;102202.94;5078807;28;45275;-59
2022/02/07 10:21:59;;;;;;;;;8.75;5.00;;;;;13.52;47.25;102207.09;5078577;28;45480;-60
2022/02/07 10:41:16;;;;;;;;;6.75;5.00;;;;;14.28;44.48;102229.63;5061256;28;45280;-61
2022/02/07 10:43:44;;;;;;;;;6.00;4.00;;;;;14.35;44.08;102226.38;5078095;28;45184;-60
2022/02/07 10:46:16;;;;;;;;;6.75;3.75;;;;;14.44;43.62;102226.59;5078001;28;45244;-61
2022/02/07 10:48:48;;;;;;;;;6.00;4.00;;;;;14.41;43.13;102217.13;5078068;28;45964;-61
2022/02/07 10:51:24;;;;;;;;;7.00;5.00;;;;;14.33;43.48;102211.59;5078120;28;45175;-60
2022/02/07 10:53:58;;;;;;;;;7.50;6.00;;;;;14.25;43.46;102212.19;5078256;28;45517;-61
2022/02/07 10:56:36;;;;;;;;;5.25;2.50;;;;;14.20;43.13;102209.88;5077672;28;45896;-61
2022/02/07 10:59:06;;;;;;;;;4.50;3.25;;;;;14.07;42.83;102202.06;5077925;28;45857;-60
2022/02/07 11:04:16;;;;;;;;;4.50;3.25;;;;;13.90;41.99;102221.00;5077887;28;45438;-60
2022/02/07 11:06:44;;;;;;;;;6.00;5.00;;;;;13.85;42.29;102204.66;5060296;28;46165;-61
2022/02/07 11:09:16;;;;;;;;;7.25;5.00;;;;;13.84;42.49;102205.63;5076913;28;45903;-61
2022/02/07 11:17:18;;;;;;;;;10.25;7.50;;;;;13.74;41.63;102216.06;5077471;28;45370;-61
2022/02/07 11:22:37;;;;;;;;;2.00;1.50;;;;;13.56;41.84;102210.34;5077683;28;45315;-61
2022/02/07 11:28:02;;;;;;;;;5.00;3.25;;;;;13.56;42.30;102213.00;5077579;28;45261;-61
2022/02/07 11:30:34;;;;;;;;;5.00;4.50;;;;;13.67;42.24;102214.81;5077483;27;45366;-60
2022/02/07 11:32:59;;;;;;;;;2.00;1.75;;;;;13.76;42.08;102214.13;5077580;28;45319;-60
2022/02/07 11:35:30;;;;;;;;;3.00;3.00;;;;;13.89;41.73;102221.97;5076591;28;66891;-60
2022/02/07 11:38:01;;;;;;;;;5.25;1.75;;;;;14.01;41.96;102226.34;5059301;28;46068;-61
2022/02/07 11:40:30;;;;;;;;;6.00;2.00;;;;;14.19;42.14;102218.78;5077445;28;45783;-61
2022/02/07 11:43:07;;;;;;;;;6.50;3.00;;;;;14.36;40.77;102201.59;5077445;28;45336;-61
2022/02/07 11:45:58;;;;;;;;;2.00;2.00;;;;;14.50;40.57;102207.63;5077366;28;45489;-60
2022/02/07 11:48:40;;;;;;;;;4.75;2.00;;;;;14.54;40.30;102212.56;5077176;28;46150;-61
2022/02/07 11:51:14;;;;;;;;;4.75;3.00;;;;;14.50;40.15;102221.69;5059077;28;45399;-61
2022/02/07 11:53:45;;;;;;;;;2.00;2.00;;;;;14.40;40.05;102233.97;5077349;28;45238;-61
2022/02/07 11:56:46;;;;;;;;;3.25;2.00;;;;;14.30;40.64;102233.84;5077210;28;45396;-61
2022/02/07 11:59:40;;;;;;;;;7.75;3.25;;;;;14.25;40.44;102234.19;5076973;28;45487;-61
2022/02/07 12:02:17;;;;;;;;;5.75;3.25;;;;;14.18;40.89;102232.13;5076634;28;45961;-60
2022/02/07 12:04:49;;;;;;;;;4.50;3.25;;;;;14.16;40.69;102244.63;5076298;28;45470;-60
2022/02/07 12:07:15;;;;;;;;;5.25;3.00;;;;;14.13;40.98;102236.94;5058718;28;45277;-60
2022/02/07 12:12:43;;;;;;;;;6.25;2.00;;;;;14.15;40.83;102235.84;5076151;28;46004;-61
2022/02/07 12:15:14;;;;;;;;;4.50;4.50;;;;;14.17;40.91;102239.22;5076878;28;45338;-61
2022/02/07 12:17:53;;;;;;;;;6.50;4.25;;;;;14.19;40.30;102236.47;5076829;28;45285;-61
2022/02/07 12:20:20;;;;;;;;;5.00;3.75;;;;;14.21;39.67;102239.84;5076720;28;45954;-61
2022/02/07 12:22:56;;;;;;;;;8.00;6.00;;;;;14.17;40.09;102238.38;5076262;28;49387;-61
2022/02/07 12:25:22;;;;;;;;;4.00;2.00;;;;;14.18;39.49;102243.53;5076672;28;45352;-60
2022/02/07 12:27:47;;;;;;;;;7.00;3.50;;;;;14.21;39.02;102229.25;5076825;28;45211;-61
2022/02/07 12:32:43;;;;;;;;;6.00;4.00;;;;;14.12;39.30;102230.78;5076609;28;45252;-61
2022/02/07 12:35:09;;;;;;;;;2.00;1.00;;;;;14.09;38.49;102241.59;5076939;28;45323;-61
2022/02/07 12:37:37;;;;;;;;;8.25;5.00;;;;;14.04;38.59;102239.31;5075937;28;65933;-61
2022/02/07 12:40:04;;;;;;;;;5.75;4.75;;;;;14.04;39.40;102246.41;5058792;28;46916;-61
2022/02/07 12:42:30;;;;;;;;;4.75;3.00;;;;;14.06;39.31;102232.09;5058295;28;45446;-60
2022/02/07 12:44:59;;;;;;;;;5.75;5.00;;;;;14.07;39.20;102223.22;5058390;28;45446;-61
2022/02/07 12:47:24;;;;;;;;;5.00;1.50;;;;;14.10;38.69;102219.50;5076588;28;45284;-60
2022/02/07 12:49:54;;;;;;;;;7.00;4.25;;;;;14.11;38.48;102229.09;5057729;28;59124;-61
2022/02/07 12:52:19;;;;;;;;;2.00;2.00;;;;;14.10;37.99;102236.22;5076325;28;45248;-61
2022/02/07 12:54:45;;;;;;;;;5.75;2.00;;;;;14.14;37.78;102235.97;5075521;28;64927;-61
2022/02/07 12:57:10;;;;;;;;;4.00;1.50;;;;;14.16;36.60;102231.41;5076320;28;45288;-61
2022/02/07 12:59:35;;;;;;;;;3.25;1.50;;;;;14.20;36.27;102232.84;5074870;28;65648;-61
2022/02/07 13:02:01;;;;;;;;;1.75;1.75;;;;;14.25;36.09;102234.19;5058164;28;45327;-61
2022/02/07 13:04:26;;;;;;;;;8.75;3.75;;;;;14.28;36.27;102229.63;5076229;28;45314;-61
2022/02/07 13:06:53;;;;;;;;;5.75;3.00;;;;;14.31;35.98;102224.91;5076300;28;45273;-61
2022/02/07 13:09:34;;;;;;;;;2.75;1.25;;;;;14.33;36.33;102232.75;5076027;28;45331;-61
2022/02/07 13:14:46;;;;;;;;;2.50;2.00;;;;;14.44;36.17;102229.25;5076286;28;45365;-61
2022/02/07 13:17:11;;;;;;;;;3.25;2.75;;;;;14.56;36.25;102238.06;5057928;28;45322;-60
2022/02/07 13:19:39;;;;;;;;;5.50;2.00;;;;;14.68;35.38;102234.41;5041029;28;45987;-61
2022/02/07 13:22:04;;;;;;;;;1.50;1.50;;;;;14.76;36.02;102236.50;5075855;28;45502;-61
2022/02/07 13:24:31;;;;;;;;;6.00;3.50;;;;;14.80;35.69;102235.31;5076490;28;59028;-61
2022/02/07 13:26:57;;;;;;;;;2.50;2.50;;;;;14.87;36.10;102235.66;5079735;28;45476;-61
2022/02/07 13:29:24;;;;;;;;;7.50;5.00;;;;;14.88;35.98;102232.88;5079322;27;45910;-61
2022/02/07 13:32:01;;;;;;;;;6.50;5.00;;;;;14.88;36.61;102240.81;5079336;28;45355;-61
2022/02/07 13:34:27;;;;;;;;;3.00;3.00;;;;;14.91;36.60;102235.25;5079562;28;45342;-61
2022/02/07 13:36:53;;;;;;;;;4.00;3.50;;;;;14.99;36.98;102234.66;5079373;28;45489;-61
2022/02/07 13:39:20;;;;;;;;;2.50;2.25;;;;;15.03;36.70;102236.09;5079171;28;45477;-61
2022/02/07 13:42:01;;;;;;;;;4.50;2.25;;;;;15.02;36.60;102236.22;5079262;28;45958;-61
2022/02/07 13:44:27;;;;;;;;;4.50;3.00;;;;;14.95;36.83;102239.34;5079337;28;45481;-61
2022/02/07 13:46:59;;;;;;;;;2.00;1.75;;;;;14.82;37.05;102241.31;5079220;28;45340;-61
2022/02/07 13:49:24;;;;;;;;;3.75;2.75;;;;;14.66;36.98;102237.19;5061715;28;46359;-61
2022/02/07 13:51:49;;;;;;;;;3.25;2.75;;;;;14.45;37.57;102237.09;5078801;28;51462;-62
2022/02/07 13:54:30;;;;;;;;;2.25;1.75;;;;;14.27;37.74;102227.94;5043280;28;67351;-61
2022/02/07 13:56:59;;;;;;;;;3.50;2.00;;;;;14.08;37.43;102234.63;5061808;28;45597;-61